sensor_id;sensor_type;location;lat;lon;timestamp;pressure;altitude;pressure_sealevel;temperature;humidity
17821;BME280;9035;42.554;23.188;2022-08-11T00:02:18;90220.25;;;18.26;75.46
17821;BME280;9035;42.554;23.188;2022-08-11T00:04:49;90231.38;;;18.52;74.62
17821;BME280;9035;42.554;23.188;2022-08-11T00:07:17;90240.22;;;18.37;74.94
17821;BME280;9035;42.554;23.188;2022-08-11T00:09:45;90238.75;;;18.40;75.78
17821;BME280;9035;42.554;23.188;2022-08-11T00:12:13;90239.19;;;18.45;74.90
17821;BME280;9035;42.554;23.188;2022-08-11T00:14:42;90237.69;;;18.48;74.62
17821;BME280;9035;42.554;23.188;2022-08-11T00:17:12;90233.84;;;18.35;74.58
17821;BME280;9035;42.554;23.188;2022-08-11T00:19:43;90239.06;;;18.31;74.62
17821;BME280;9035;42.554;23.188;2022-08-11T00:22:19;90232.00;;;18.39;74.23
17821;BME280;9035;42.554;23.188;2022-08-11T00:24:46;90231.25;;;18.38;73.87
17821;BME280;9035;42.554;23.188;2022-08-11T00:27:14;90226.72;;;18.35;74.71
17821;BME280;9035;42.554;23.188;2022-08-11T00:29:51;90222.09;;;18.22;75.18
17821;BME280;9035;42.554;23.188;2022-08-11T00:32:18;90231.91;;;18.28;74.82
17821;BME280;9035;42.554;23.188;2022-08-11T00:34:46;90232.59;;;18.22;74.79
17821;BME280;9035;42.554;23.188;2022-08-11T00:37:17;90236.75;;;18.26;74.67
17821;BME280;9035;42.554;23.188;2022-08-11T00:39:48;90236.81;;;18.30;74.51
17821;BME280;9035;42.554;23.188;2022-08-11T00:42:19;90234.34;;;18.14;75.59
17821;BME280;9035;42.554;23.188;2022-08-11T00:45:03;90226.34;;;18.00;75.95
17821;BME280;9035;42.554;23.188;2022-08-11T00:47:41;90232.78;;;18.06;75.35
17821;BME280;9035;42.554;23.188;2022-08-11T00:53:06;90233.28;;;18.19;74.21
17821;BME280;9035;42.554;23.188;2022-08-11T01:01:52;90233.56;;;18.10;74.85
17821;BME280;9035;42.554;23.188;2022-08-11T01:07:47;90224.22;;;18.13;74.01
17821;BME280;9035;42.554;23.188;2022-08-11T01:10:51;90217.81;;;18.10;74.07
17821;BME280;9035;42.554;23.188;2022-08-11T01:13:48;90218.44;;;17.97;74.66
17821;BME280;9035;42.554;23.188;2022-08-11T01:16:49;90208.28;;;17.95;74.11
17821;BME280;9035;42.554;23.188;2022-08-11T01:22:38;90202.81;;;18.07;73.07
17821;BME280;9035;42.554;23.188;2022-08-11T01:28:52;90211.22;;;17.87;74.17
17821;BME280;9035;42.554;23.188;2022-08-11T01:31:55;90202.25;;;17.91;73.97
17821;BME280;9035;42.554;23.188;2022-08-11T01:49:26;90218.28;;;17.83;73.78
17821;BME280;9035;42.554;23.188;2022-08-11T01:52:08;90223.06;;;17.77;73.82
17821;BME280;9035;42.554;23.188;2022-08-11T01:54:43;90221.47;;;17.69;74.51
17821;BME280;9035;42.554;23.188;2022-08-11T01:57:22;90210.03;;;17.81;74.29
17821;BME280;9035;42.554;23.188;2022-08-11T01:59:56;90219.66;;;17.73;74.26
17821;BME280;9035;42.554;23.188;2022-08-11T02:02:36;90215.22;;;17.77;73.76
17821;BME280;9035;42.554;23.188;2022-08-11T02:05:44;90220.13;;;17.79;73.83
17821;BME280;9035;42.554;23.188;2022-08-11T02:08:22;90214.47;;;17.77;73.46
17821;BME280;9035;42.554;23.188;2022-08-11T02:10:57;90206.97;;;17.75;73.41
17821;BME280;9035;42.554;23.188;2022-08-11T02:13:48;90210.88;;;17.59;74.29
17821;BME280;9035;42.554;23.188;2022-08-11T02:16:35;90204.16;;;17.62;74.05
17821;BME280;9035;42.554;23.188;2022-08-11T02:19:12;90217.00;;;17.70;73.22
17821;BME280;9035;42.554;23.188;2022-08-11T02:22:08;90208.75;;;17.68;73.58
17821;BME280;9035;42.554;23.188;2022-08-11T02:24:59;90207.97;;;17.64;74.01
17821;BME280;9035;42.554;23.188;2022-08-11T02:27:35;90209.72;;;17.57;73.92
17821;BME280;9035;42.554;23.188;2022-08-11T02:30:07;90206.75;;;17.58;74.66
17821;BME280;9035;42.554;23.188;2022-08-11T02:32:40;90209.00;;;17.56;74.82
17821;BME280;9035;42.554;23.188;2022-08-11T02:35:40;90210.06;;;17.52;75.49
17821;BME280;9035;42.554;23.188;2022-08-11T02:38:26;90205.59;;;17.56;75.37
17821;BME280;9035;42.554;23.188;2022-08-11T02:40:59;90199.91;;;17.50;75.60
17821;BME280;9035;42.554;23.188;2022-08-11T02:43:38;90202.28;;;17.59;75.14
17821;BME280;9035;42.554;23.188;2022-08-11T02:46:19;90204.53;;;17.60;74.53
17821;BME280;9035;42.554;23.188;2022-08-11T02:48:55;90208.69;;;17.65;74.36
17821;BME280;9035;42.554;23.188;2022-08-11T02:51:50;90193.31;;;17.63;74.65
17821;BME280;9035;42.554;23.188;2022-08-11T02:54:25;90194.84;;;17.64;74.24
17821;BME280;9035;42.554;23.188;2022-08-11T02:57:05;90192.16;;;17.61;74.17
17821;BME280;9035;42.554;23.188;2022-08-11T02:59:48;90197.72;;;17.56;74.95
17821;BME280;9035;42.554;23.188;2022-08-11T03:02:39;90201.81;;;17.53;74.53
17821;BME280;9035;42.554;23.188;2022-08-11T03:05:41;90210.38;;;17.50;74.14
17821;BME280;9035;42.554;23.188;2022-08-11T03:08:24;90208.59;;;17.54;74.47
17821;BME280;9035;42.554;23.188;2022-08-11T03:11:02;90203.63;;;17.49;74.50
17821;BME280;9035;42.554;23.188;2022-08-11T03:13:55;90205.50;;;17.49;74.88
17821;BME280;9035;42.554;23.188;2022-08-11T03:16:49;90208.53;;;17.51;75.15
17821;BME280;9035;42.554;23.188;2022-08-11T03:19:23;90206.22;;;17.46;75.42
17821;BME280;9035;42.554;23.188;2022-08-11T03:22:02;90211.16;;;17.51;74.90
17821;BME280;9035;42.554;23.188;2022-08-11T03:24:41;90211.16;;;17.51;75.13
17821;BME280;9035;42.554;23.188;2022-08-11T03:27:25;90206.38;;;17.56;74.33
17821;BME280;9035;42.554;23.188;2022-08-11T03:30:04;90211.09;;;17.44;74.54
17821;BME280;9035;42.554;23.188;2022-08-11T03:32:36;90205.69;;;17.33;76.17
17821;BME280;9035;42.554;23.188;2022-08-11T03:35:08;90208.50;;;17.47;75.63
17821;BME280;9035;42.554;23.188;2022-08-11T03:37:46;90202.81;;;17.42;76.68
17821;BME280;9035;42.554;23.188;2022-08-11T03:40:32;90198.63;;;17.37;76.82
17821;BME280;9035;42.554;23.188;2022-08-11T03:43:36;90197.47;;;17.35;76.72
17821;BME280;9035;42.554;23.188;2022-08-11T03:46:13;90204.69;;;17.45;75.17
17821;BME280;9035;42.554;23.188;2022-08-11T03:48:48;90204.00;;;17.48;74.37
17821;BME280;9035;42.554;23.188;2022-08-11T03:51:24;90200.88;;;17.39;74.94
17821;BME280;9035;42.554;23.188;2022-08-11T03:54:14;90195.66;;;17.39;75.32
17821;BME280;9035;42.554;23.188;2022-08-11T04:00:46;90195.41;;;17.47;75.62
17821;BME280;9035;42.554;23.188;2022-08-11T04:03:28;90198.06;;;17.51;75.01
17821;BME280;9035;42.554;23.188;2022-08-11T04:09:41;90201.78;;;17.50;73.66
17821;BME280;9035;42.554;23.188;2022-08-11T04:12:30;90201.41;;;17.51;73.63
17821;BME280;9035;42.554;23.188;2022-08-11T04:21:26;90186.47;;;17.52;74.19
17821;BME280;9035;42.554;23.188;2022-08-11T04:24:26;90196.94;;;17.52;74.18
17821;BME280;9035;42.554;23.188;2022-08-11T04:30:07;90202.53;;;17.50;74.62
17821;BME280;9035;42.554;23.188;2022-08-11T04:33:05;90200.34;;;17.56;75.20
17821;BME280;9035;42.554;23.188;2022-08-11T04:35:44;90181.63;;;17.57;74.83
17821;BME280;9035;42.554;23.188;2022-08-11T04:38:33;90203.13;;;17.69;75.14
17821;BME280;9035;42.554;23.188;2022-08-11T04:41:43;90213.72;;;17.76;75.86
17821;BME280;9035;42.554;23.188;2022-08-11T04:45:21;90211.94;;;17.87;76.30
17821;BME280;9035;42.554;23.188;2022-08-11T04:48:16;90196.66;;;17.93;77.42
17821;BME280;9035;42.554;23.188;2022-08-11T04:51:22;90207.84;;;18.23;76.69
17821;BME280;9035;42.554;23.188;2022-08-11T04:54:23;90210.00;;;18.14;77.75
17821;BME280;9035;42.554;23.188;2022-08-11T04:57:18;90204.56;;;18.33;76.75
17821;BME280;9035;42.554;23.188;2022-08-11T05:00:05;90206.06;;;18.34;74.54
17821;BME280;9035;42.554;23.188;2022-08-11T05:09:21;90200.22;;;18.51;73.38
17821;BME280;9035;42.554;23.188;2022-08-11T05:12:19;90209.69;;;18.62;73.21
17821;BME280;9035;42.554;23.188;2022-08-11T05:14:51;90205.22;;;18.62;73.60
17821;BME280;9035;42.554;23.188;2022-08-11T05:17:40;90185.31;;;18.61;73.67
17821;BME280;9035;42.554;23.188;2022-08-11T05:20:45;90206.88;;;18.84;73.38
17821;BME280;9035;42.554;23.188;2022-08-11T05:23:32;90196.28;;;18.74;73.72
17821;BME280;9035;42.554;23.188;2022-08-11T05:26:18;90203.16;;;18.89;72.53
17821;BME280;9035;42.554;23.188;2022-08-11T05:32:10;90206.53;;;18.93;73.98
17821;BME280;9035;42.554;23.188;2022-08-11T05:34:56;90197.28;;;19.09;73.78
17821;BME280;9035;42.554;23.188;2022-08-11T05:37:33;90198.47;;;19.19;73.47
17821;BME280;9035;42.554;23.188;2022-08-11T05:40:06;90198.78;;;19.07;74.34
17821;BME280;9035;42.554;23.188;2022-08-11T05:42:56;90206.38;;;19.22;73.81
17821;BME280;9035;42.554;23.188;2022-08-11T05:45:41;90203.69;;;19.12;73.61
17821;BME280;9035;42.554;23.188;2022-08-11T05:48:32;90203.03;;;19.22;73.38
17821;BME280;9035;42.554;23.188;2022-08-11T05:51:17;90206.50;;;19.36;73.61
17821;BME280;9035;42.554;23.188;2022-08-11T05:54:03;90210.56;;;19.30;74.18
17821;BME280;9035;42.554;23.188;2022-08-11T05:56:52;90204.59;;;19.33;73.75
17821;BME280;9035;42.554;23.188;2022-08-11T05:59:22;90207.63;;;19.42;74.23
17821;BME280;9035;42.554;23.188;2022-08-11T06:01:50;90201.28;;;19.50;74.95
17821;BME280;9035;42.554;23.188;2022-08-11T06:04:19;90213.00;;;19.63;75.49
17821;BME280;9035;42.554;23.188;2022-08-11T06:06:49;90206.66;;;19.74;75.71
17821;BME280;9035;42.554;23.188;2022-08-11T06:09:25;90209.25;;;19.67;76.58
17821;BME280;9035;42.554;23.188;2022-08-11T06:11:57;90211.09;;;19.56;77.09
17821;BME280;9035;42.554;23.188;2022-08-11T06:14:27;90207.38;;;19.64;77.31
17821;BME280;9035;42.554;23.188;2022-08-11T06:16:57;90203.56;;;19.58;78.00
17821;BME280;9035;42.554;23.188;2022-08-11T06:19:35;90208.13;;;19.68;77.80
17821;BME280;9035;42.554;23.188;2022-08-11T06:22:05;90167.53;;;19.62;77.56
17821;BME280;9035;42.554;23.188;2022-08-11T06:24:33;90202.63;;;19.98;77.40
17821;BME280;9035;42.554;23.188;2022-08-11T06:27:02;90207.84;;;19.87;76.98
17821;BME280;9035;42.554;23.188;2022-08-11T06:29:32;90207.84;;;19.91;78.15
17821;BME280;9035;42.554;23.188;2022-08-11T06:32:03;90209.03;;;20.00;77.10
17821;BME280;9035;42.554;23.188;2022-08-11T06:34:36;90206.03;;;19.98;78.61
17821;BME280;9035;42.554;23.188;2022-08-11T06:37:15;90212.44;;;20.01;80.35
17821;BME280;9035;42.554;23.188;2022-08-11T06:39:51;90213.56;;;20.07;81.84
17821;BME280;9035;42.554;23.188;2022-08-11T06:42:43;90214.69;;;20.06;81.78
17821;BME280;9035;42.554;23.188;2022-08-11T06:45:22;90214.69;;;20.02;80.40
17821;BME280;9035;42.554;23.188;2022-08-11T06:47:51;90216.94;;;20.00;80.89
17821;BME280;9035;42.554;23.188;2022-08-11T06:50:21;90210.47;;;19.91;81.77
17821;BME280;9035;42.554;23.188;2022-08-11T06:53:08;90206.78;;;20.06;80.82
17821;BME280;9035;42.554;23.188;2022-08-11T06:55:39;90202.66;;;20.12;81.37
17821;BME280;9035;42.554;23.188;2022-08-11T06:58:27;90212.88;;;20.27;81.09
17821;BME280;9035;42.554;23.188;2022-08-11T07:01:15;90212.53;;;20.35;77.97
17821;BME280;9035;42.554;23.188;2022-08-11T07:03:47;90221.50;;;20.27;77.22
17821;BME280;9035;42.554;23.188;2022-08-11T07:06:24;90214.78;;;20.44;76.53
17821;BME280;9035;42.554;23.188;2022-08-11T07:09:08;90221.97;;;20.64;77.37
17821;BME280;9035;42.554;23.188;2022-08-11T07:12:02;90221.97;;;20.71;76.60
17821;BME280;9035;42.554;23.188;2022-08-11T07:14:54;90227.28;;;20.78;72.95
17821;BME280;9035;42.554;23.188;2022-08-11T07:17:44;90220.50;;;20.95;75.61
17821;BME280;9035;42.554;23.188;2022-08-11T07:20:14;90227.66;;;20.91;76.00
17821;BME280;9035;42.554;23.188;2022-08-11T07:23:01;90215.63;;;21.00;72.36
17821;BME280;9035;42.554;23.188;2022-08-11T07:25:48;90215.59;;;21.03;70.23
17821;BME280;9035;42.554;23.188;2022-08-11T07:28:36;90209.56;;;20.99;70.16
17821;BME280;9035;42.554;23.188;2022-08-11T07:31:29;90209.56;;;20.96;69.71
17821;BME280;9035;42.554;23.188;2022-08-11T07:34:07;90216.34;;;20.97;68.33
17821;BME280;9035;42.554;23.188;2022-08-11T07:36:38;90212.59;;;20.84;67.78
17821;BME280;9035;42.554;23.188;2022-08-11T07:39:07;90217.50;;;20.89;67.72
17821;BME280;9035;42.554;23.188;2022-08-11T07:41:36;90214.09;;;21.02;66.74
17821;BME280;9035;42.554;23.188;2022-08-11T07:44:04;90219.72;;;20.98;66.24
17821;BME280;9035;42.554;23.188;2022-08-11T07:46:35;90212.59;;;21.08;65.96
17821;BME280;9035;42.554;23.188;2022-08-11T07:49:39;90203.16;;;21.07;65.10
17821;BME280;9035;42.554;23.188;2022-08-11T07:52:27;90215.59;;;21.21;65.00
17821;BME280;9035;42.554;23.188;2022-08-11T07:54:56;90209.56;;;21.10;64.80
17821;BME280;9035;42.554;23.188;2022-08-11T07:57:24;90216.34;;;21.14;64.88
17821;BME280;9035;42.554;23.188;2022-08-11T08:00:10;90214.06;;;21.20;63.32
17821;BME280;9035;42.554;23.188;2022-08-11T08:02:54;90215.97;;;21.23;63.96
17821;BME280;9035;42.554;23.188;2022-08-11T08:05:43;90223.50;;;21.17;63.70
17821;BME280;9035;42.554;23.188;2022-08-11T08:08:29;90220.13;;;21.24;64.06
17821;BME280;9035;42.554;23.188;2022-08-11T08:11:14;90214.03;;;21.44;62.47
17821;BME280;9035;42.554;23.188;2022-08-11T08:13:58;90224.97;;;21.57;61.30
17821;BME280;9035;42.554;23.188;2022-08-11T08:16:43;90217.41;;;21.66;60.97
17821;BME280;9035;42.554;23.188;2022-08-11T08:19:28;90219.56;;;21.91;60.59
17821;BME280;9035;42.554;23.188;2022-08-11T08:21:58;90217.28;;;21.97;59.96
17821;BME280;9035;42.554;23.188;2022-08-11T08:24:27;90214.25;;;22.05;57.33
17821;BME280;9035;42.554;23.188;2022-08-11T08:26:54;90218.41;;;22.03;57.83
17821;BME280;9035;42.554;23.188;2022-08-11T08:29:26;90217.56;;;22.27;56.50
17821;BME280;9035;42.554;23.188;2022-08-11T08:32:12;90214.47;;;22.39;56.89
17821;BME280;9035;42.554;23.188;2022-08-11T08:34:40;90215.22;;;22.46;55.05
17821;BME280;9035;42.554;23.188;2022-08-11T08:37:09;90221.22;;;22.47;55.69
17821;BME280;9035;42.554;23.188;2022-08-11T08:39:37;90207.97;;;22.54;55.37
17821;BME280;9035;42.554;23.188;2022-08-11T08:42:07;90204.13;;;22.68;53.75
17821;BME280;9035;42.554;23.188;2022-08-11T08:44:40;90210.47;;;22.78;53.96
17821;BME280;9035;42.554;23.188;2022-08-11T08:47:10;90215.41;;;22.72;53.75
17821;BME280;9035;42.554;23.188;2022-08-11T08:49:44;90218.00;;;22.79;54.21
17821;BME280;9035;42.554;23.188;2022-08-11T08:52:19;90211.72;;;22.63;53.05
17821;BME280;9035;42.554;23.188;2022-08-11T08:54:50;90207.94;;;22.57;54.62
17821;BME280;9035;42.554;23.188;2022-08-11T08:57:21;90207.88;;;22.71;55.02
17821;BME280;9035;42.554;23.188;2022-08-11T08:59:49;90192.78;;;22.68;54.03
17821;BME280;9035;42.554;23.188;2022-08-11T09:02:17;90207.44;;;22.79;54.41
17821;BME280;9035;42.554;23.188;2022-08-11T09:04:45;90191.38;;;22.53;54.61
17821;BME280;9035;42.554;23.188;2022-08-11T09:07:16;90210.16;;;22.69;53.62
17821;BME280;9035;42.554;23.188;2022-08-11T09:09:46;90206.25;;;22.84;53.23
17821;BME280;9035;42.554;23.188;2022-08-11T09:12:13;90201.63;;;22.98;53.38
17821;BME280;9035;42.554;23.188;2022-08-11T09:14:44;90212.22;;;22.98;52.23
17821;BME280;9035;42.554;23.188;2022-08-11T09:17:29;90204.34;;;22.88;52.61
17821;BME280;9035;42.554;23.188;2022-08-11T09:19:59;90206.47;;;23.07;52.22
17821;BME280;9035;42.554;23.188;2022-08-11T09:22:31;90204.13;;;23.16;50.40
17821;BME280;9035;42.554;23.188;2022-08-11T09:25:18;90216.69;;;23.08;51.44
17821;BME280;9035;42.554;23.188;2022-08-11T09:28:04;90208.97;;;23.28;50.15
17821;BME280;9035;42.554;23.188;2022-08-11T09:30:32;90202.59;;;23.22;51.19
17821;BME280;9035;42.554;23.188;2022-08-11T09:33:01;90192.53;;;23.47;49.20
17821;BME280;9035;42.554;23.188;2022-08-11T09:35:32;90190.81;;;23.30;51.26
17821;BME280;9035;42.554;23.188;2022-08-11T09:38:04;90201.88;;;23.58;50.66
17821;BME280;9035;42.554;23.188;2022-08-11T09:40:50;90201.53;;;23.52;50.20
17821;BME280;9035;42.554;23.188;2022-08-11T09:43:18;90199.81;;;23.76;49.17
17821;BME280;9035;42.554;23.188;2022-08-11T09:46:22;90197.16;;;23.72;48.37
17821;BME280;9035;42.554;23.188;2022-08-11T09:48:51;90187.56;;;23.89;49.22
17821;BME280;9035;42.554;23.188;2022-08-11T09:51:21;90187.31;;;23.76;48.92
17821;BME280;9035;42.554;23.188;2022-08-11T09:53:50;90186.50;;;23.83;49.10
17821;BME280;9035;42.554;23.188;2022-08-11T09:56:19;90181.84;;;23.90;49.25
17821;BME280;9035;42.554;23.188;2022-08-11T09:59:05;90183.72;;;23.93;49.00
17821;BME280;9035;42.554;23.188;2022-08-11T10:01:36;90183.72;;;23.93;48.68
17821;BME280;9035;42.554;23.188;2022-08-11T10:04:11;90184.22;;;24.15;48.76
17821;BME280;9035;42.554;23.188;2022-08-11T10:06:42;90183.06;;;24.16;48.74
17821;BME280;9035;42.554;23.188;2022-08-11T10:09:35;90181.44;;;24.55;45.96
17821;BME280;9035;42.554;23.188;2022-08-11T10:12:06;90177.34;;;24.77;46.59
17821;BME280;9035;42.554;23.188;2022-08-11T10:14:37;90184.03;;;24.85;46.73
17821;BME280;9035;42.554;23.188;2022-08-11T10:17:23;90179.81;;;24.87;47.66
17821;BME280;9035;42.554;23.188;2022-08-11T10:19:52;90176.06;;;25.11;49.61
17821;BME280;9035;42.554;23.188;2022-08-11T10:22:22;90169.75;;;25.47;48.51
17821;BME280;9035;42.554;23.188;2022-08-11T10:25:09;90180.88;;;24.93;48.62
17821;BME280;9035;42.554;23.188;2022-08-11T10:27:54;90183.53;;;24.93;47.51
17821;BME280;9035;42.554;23.188;2022-08-11T10:30:25;90185.56;;;25.09;47.61
17821;BME280;9035;42.554;23.188;2022-08-11T10:33:11;90180.88;;;25.19;47.74
17821;BME280;9035;42.554;23.188;2022-08-11T10:35:56;90193.72;;;25.21;48.71
17821;BME280;9035;42.554;23.188;2022-08-11T10:38:24;90191.75;;;25.25;49.02
17821;BME280;9035;42.554;23.188;2022-08-11T10:40:54;90178.41;;;25.28;48.61
17821;BME280;9035;42.554;23.188;2022-08-11T10:43:36;90178.78;;;25.30;48.16
17821;BME280;9035;42.554;23.188;2022-08-11T10:46:06;90181.25;;;25.41;47.91
17821;BME280;9035;42.554;23.188;2022-08-11T10:48:51;90178.69;;;24.88;48.76
17821;BME280;9035;42.554;23.188;2022-08-11T10:51:18;90180.53;;;24.65;48.06
17821;BME280;9035;42.554;23.188;2022-08-11T10:53:50;90178.97;;;24.94;47.50
17821;BME280;9035;42.554;23.188;2022-08-11T10:56:37;90170.75;;;25.34;46.62
17821;BME280;9035;42.554;23.188;2022-08-11T10:59:24;90162.75;;;25.57;46.14
17821;BME280;9035;42.554;23.188;2022-08-11T11:01:52;90162.09;;;25.72;46.23
17821;BME280;9035;42.554;23.188;2022-08-11T11:04:23;90164.94;;;25.62;45.34
17821;BME280;9035;42.554;23.188;2022-08-11T11:06:58;90170.41;;;25.74;45.47
17821;BME280;9035;42.554;23.188;2022-08-11T11:09:30;90170.94;;;25.89;45.58
17821;BME280;9035;42.554;23.188;2022-08-11T11:12:02;90168.16;;;25.73;46.31
17821;BME280;9035;42.554;23.188;2022-08-11T11:14:50;90167.59;;;25.62;47.47
17821;BME280;9035;42.554;23.188;2022-08-11T11:17:38;90151.09;;;25.93;46.46
17821;BME280;9035;42.554;23.188;2022-08-11T11:20:28;90165.63;;;25.89;46.42
17821;BME280;9035;42.554;23.188;2022-08-11T11:23:01;90166.13;;;26.38;45.86
17821;BME280;9035;42.554;23.188;2022-08-11T11:25:37;90154.00;;;26.88;44.75
17821;BME280;9035;42.554;23.188;2022-08-11T11:28:45;90161.72;;;26.67;45.15
17821;BME280;9035;42.554;23.188;2022-08-11T11:31:25;90162.13;;;26.66;44.69
17821;BME280;9035;42.554;23.188;2022-08-11T11:34:14;90164.41;;;26.83;44.71
17821;BME280;9035;42.554;23.188;2022-08-11T11:36:44;90160.81;;;26.74;44.23
17821;BME280;9035;42.554;23.188;2022-08-11T11:39:16;90161.72;;;26.83;44.53
17821;BME280;9035;42.554;23.188;2022-08-11T11:41:44;90156.84;;;26.81;43.64
17821;BME280;9035;42.554;23.188;2022-08-11T11:44:14;90160.22;;;26.82;43.33
17821;BME280;9035;42.554;23.188;2022-08-11T11:46:41;90163.56;;;26.86;43.19
17821;BME280;9035;42.554;23.188;2022-08-11T11:49:12;90153.34;;;27.00;43.24
17821;BME280;9035;42.554;23.188;2022-08-11T11:51:40;90154.47;;;27.03;42.23
17821;BME280;9035;42.554;23.188;2022-08-11T11:54:08;90142.47;;;27.27;41.35
17821;BME280;9035;42.554;23.188;2022-08-11T11:56:36;90130.44;;;27.51;42.27
17821;BME280;9035;42.554;23.188;2022-08-11T11:59:04;90143.94;;;27.88;39.76
17821;BME280;9035;42.554;23.188;2022-08-11T12:01:50;90143.47;;;27.77;40.48
17821;BME280;9035;42.554;23.188;2022-08-11T12:04:19;90148.34;;;27.94;40.42
17821;BME280;9035;42.554;23.188;2022-08-11T12:06:47;90132.25;;;27.98;39.26
17821;BME280;9035;42.554;23.188;2022-08-11T12:09:14;90127.06;;;28.07;38.04
17821;BME280;9035;42.554;23.188;2022-08-11T12:11:49;90114.09;;;28.46;37.71
17821;BME280;9035;42.554;23.188;2022-08-11T12:14:33;90116.34;;;28.23;39.85
17821;BME280;9035;42.554;23.188;2022-08-11T12:17:03;90125.19;;;27.91;39.36
17821;BME280;9035;42.554;23.188;2022-08-11T12:19:30;90130.88;;;28.47;39.19
17821;BME280;9035;42.554;23.188;2022-08-11T12:21:58;90121.19;;;29.02;38.22
17821;BME280;9035;42.554;23.188;2022-08-11T12:24:44;90133.22;;;29.31;37.38
17821;BME280;9035;42.554;23.188;2022-08-11T12:27:30;90135.03;;;29.10;38.24
17821;BME280;9035;42.554;23.188;2022-08-11T12:30:03;90100.25;;;29.34;36.02
17821;BME280;9035;42.554;23.188;2022-08-11T12:32:35;90128.34;;;29.98;34.89
17821;BME280;9035;42.554;23.188;2022-08-11T12:35:04;90133.28;;;30.72;33.20
17821;BME280;9035;42.554;23.188;2022-08-11T12:37:34;90128.31;;;31.40;32.19
17821;BME280;9035;42.554;23.188;2022-08-11T12:40:06;90123.34;;;31.87;30.51
17821;BME280;9035;42.554;23.188;2022-08-11T12:42:53;90118.56;;;32.45;29.69
17821;BME280;9035;42.554;23.188;2022-08-11T12:45:40;90116.66;;;33.28;29.18
17821;BME280;9035;42.554;23.188;2022-08-11T12:48:14;90115.81;;;34.15;27.96
17821;BME280;9035;42.554;23.188;2022-08-11T12:51:03;90114.94;;;35.33;26.89
17821;BME280;9035;42.554;23.188;2022-08-11T12:53:53;90119.88;;;35.89;26.44
17821;BME280;9035;42.554;23.188;2022-08-11T12:56:21;90118.69;;;36.10;26.34
17821;BME280;9035;42.554;23.188;2022-08-11T12:59:15;90103.38;;;36.47;25.52
17821;BME280;9035;42.554;23.188;2022-08-11T13:02:00;90103.22;;;37.37;24.82
17821;BME280;9035;42.554;23.188;2022-08-11T13:04:47;90108.53;;;38.79;23.56
17821;BME280;9035;42.554;23.188;2022-08-11T13:07:20;90109.59;;;39.20;22.76
17821;BME280;9035;42.554;23.188;2022-08-11T13:09:48;90098.81;;;40.77;21.95
17821;BME280;9035;42.554;23.188;2022-08-11T13:12:16;90098.41;;;41.96;20.57
17821;BME280;9035;42.554;23.188;2022-08-11T13:15:01;90088.75;;;42.18;20.53
17821;BME280;9035;42.554;23.188;2022-08-11T13:17:29;90093.53;;;43.41;20.30
17821;BME280;9035;42.554;23.188;2022-08-11T13:20:00;90086.97;;;43.94;19.88
17821;BME280;9035;42.554;23.188;2022-08-11T13:22:28;90092.34;;;45.44;18.02
17821;BME280;9035;42.554;23.188;2022-08-11T13:24:56;90082.19;;;46.83;17.80
17821;BME280;9035;42.554;23.188;2022-08-11T13:27:24;90085.94;;;44.36;19.53
17821;BME280;9035;42.554;23.188;2022-08-11T13:29:52;90089.91;;;45.07;18.91
17821;BME280;9035;42.554;23.188;2022-08-11T13:32:41;90091.84;;;46.14;18.76
17821;BME280;9035;42.554;23.188;2022-08-11T13:35:11;90083.91;;;44.62;20.08
17821;BME280;9035;42.554;23.188;2022-08-11T13:37:40;90087.38;;;44.50;19.91
17821;BME280;9035;42.554;23.188;2022-08-11T13:40:09;90078.81;;;46.42;19.15
17821;BME280;9035;42.554;23.188;2022-08-11T13:42:37;90082.22;;;47.63;17.29
17821;BME280;9035;42.554;23.188;2022-08-11T13:45:06;90088.47;;;47.64;17.29
17821;BME280;9035;42.554;23.188;2022-08-11T13:47:34;90086.63;;;47.59;17.98
17821;BME280;9035;42.554;23.188;2022-08-11T13:50:03;90087.19;;;48.54;17.25
17821;BME280;9035;42.554;23.188;2022-08-11T13:52:32;90071.97;;;48.08;17.90
17821;BME280;9035;42.554;23.188;2022-08-11T13:55:00;90083.22;;;49.66;16.56
17821;BME280;9035;42.554;23.188;2022-08-11T13:57:30;90086.72;;;48.95;16.34
17821;BME280;9035;42.554;23.188;2022-08-11T13:59:59;90079.28;;;49.76;16.17
17821;BME280;9035;42.554;23.188;2022-08-11T14:02:37;90073.75;;;49.76;15.92
17821;BME280;9035;42.554;23.188;2022-08-11T14:05:08;90073.47;;;49.65;16.07
17821;BME280;9035;42.554;23.188;2022-08-11T14:07:38;90076.41;;;49.91;16.21
17821;BME280;9035;42.554;23.188;2022-08-11T14:10:08;90076.03;;;50.60;15.07
17821;BME280;9035;42.554;23.188;2022-08-11T14:12:39;90075.47;;;51.39;15.00
17821;BME280;9035;42.554;23.188;2022-08-11T14:15:28;90065.50;;;50.75;14.94
17821;BME280;9035;42.554;23.188;2022-08-11T14:18:00;90065.81;;;50.29;15.46
17821;BME280;9035;42.554;23.188;2022-08-11T14:20:31;90059.25;;;48.58;16.12
17821;BME280;9035;42.554;23.188;2022-08-11T14:23:25;90073.44;;;47.87;16.25
17821;BME280;9035;42.554;23.188;2022-08-11T14:25:52;90060.03;;;49.37;15.80
17821;BME280;9035;42.554;23.188;2022-08-11T14:28:37;90053.91;;;50.19;15.42
17821;BME280;9035;42.554;23.188;2022-08-11T14:31:06;90067.09;;;49.79;15.64
17821;BME280;9035;42.554;23.188;2022-08-11T14:33:34;90058.56;;;49.92;15.58
17821;BME280;9035;42.554;23.188;2022-08-11T14:36:02;90068.31;;;49.37;15.64
17821;BME280;9035;42.554;23.188;2022-08-11T14:38:32;90067.59;;;48.90;15.88
17821;BME280;9035;42.554;23.188;2022-08-11T14:40:59;90064.59;;;49.42;15.59
17821;BME280;9035;42.554;23.188;2022-08-11T14:43:44;90061.75;;;48.71;15.76
17821;BME280;9035;42.554;23.188;2022-08-11T14:46:29;90065.72;;;48.15;15.80
17821;BME280;9035;42.554;23.188;2022-08-11T14:49:14;90060.03;;;47.54;15.91
17821;BME280;9035;42.554;23.188;2022-08-11T14:51:42;90052.88;;;48.03;16.16
17821;BME280;9035;42.554;23.188;2022-08-11T14:54:10;90049.47;;;48.64;15.97
17821;BME280;9035;42.554;23.188;2022-08-11T14:56:54;90054.16;;;48.09;15.89
17821;BME280;9035;42.554;23.188;2022-08-11T14:59:22;90045.13;;;48.31;16.20